Ebolowa Airport


Codes: FKKW/EBW
Name: Ebolowa Airport
City: Ebolowa
Country: Cameroon
Elevation: 1975 ft.
Wikipedia:

Photos at Ebolowa Airport


   Photos courtesy of SpottingLog. You can add your own sightings and photos by signing up for a free trial today.



No photos found.

Weather at Ebolowa Airport


Time (UTC)DescriptionTempratureWindCloud coverageVisibilityPressureHumidity
17-Jun-2024 06:00Overcast Clouds20°C2 mph, N98%10000m1015hPa98%
17-Jun-2024 09:00Broken Clouds22°C2 mph, N79%10000m1015hPa87%
17-Jun-2024 12:00Broken Clouds28°C2 mph, N55%10000m1012hPa64%
17-Jun-2024 15:00Light Rain26°C2 mph, W97%10000m1010hPa76%
17-Jun-2024 18:00Light Rain22°C2 mph, W95%10000m1011hPa95%
17-Jun-2024 21:00Scattered Clouds21°C2 mph, W45%10000m1013hPa97%
18-Jun-2024 00:00Light Rain21°C2 mph, NW61%10000m1013hPa99%
18-Jun-2024 03:00Broken Clouds20°C2 mph, NW60%10000m1013hPa99%
18-Jun-2024 06:00Broken Clouds20°C2 mph, W59%10000m1014hPa98%
18-Jun-2024 09:00Broken Clouds26°C2 mph, W59%10000m1015hPa71%
18-Jun-2024 12:00Light Rain26°C2 mph, NW58%10000m1012hPa81%
18-Jun-2024 15:00Light Rain26°C2 mph, NW89%10000m1011hPa79%
18-Jun-2024 18:00Moderate Rain22°C2 mph, N93%10000m1012hPa96%
18-Jun-2024 21:00Light Rain21°C2 mph, W100%10000m1014hPa99%
19-Jun-2024 00:00Light Rain20°C2 mph, W100%10000m1013hPa100%
19-Jun-2024 03:00Broken Clouds20°C2 mph, NW74%10000m1012hPa99%
19-Jun-2024 06:00Light Rain21°C2 mph, NW82%10000m1013hPa98%
19-Jun-2024 09:00Overcast Clouds22°C2 mph, NW100%10000m1014hPa88%
19-Jun-2024 12:00Overcast Clouds27°C2 mph, W100%10000m1012hPa69%
19-Jun-2024 15:00Light Rain26°C2 mph, NW97%10000m1010hPa84%
19-Jun-2024 18:00Moderate Rain22°C2 mph, W97%10000m1012hPa96%
19-Jun-2024 21:00Light Rain21°C2 mph, NW75%10000m1014hPa99%
20-Jun-2024 00:00Overcast Clouds21°C2 mph, W87%2449m1013hPa100%
20-Jun-2024 03:00Overcast Clouds21°C0 mph, W100%10000m1012hPa99%
20-Jun-2024 06:00Light Rain21°C0 mph, W100%10000m1013hPa97%
20-Jun-2024 09:00Overcast Clouds23°C0 mph, NW100%10000m1014hPa90%
20-Jun-2024 12:00Overcast Clouds26°C2 mph, S100%10000m1012hPa71%
20-Jun-2024 15:00Light Rain27°C2 mph, S73%10000m1010hPa66%
20-Jun-2024 18:00Light Rain22°C2 mph, W82%10000m1012hPa92%
20-Jun-2024 21:00Moderate Rain21°C2 mph, W98%8565m1014hPa99%
21-Jun-2024 00:00Light Rain21°C2 mph, NW99%10000m1013hPa99%
21-Jun-2024 03:00Light Rain21°C2 mph, NW97%2346m1013hPa99%
21-Jun-2024 06:00Light Rain21°C2 mph, NW94%10000m1015hPa97%
21-Jun-2024 09:00Light Rain25°C2 mph, NW97%10000m1015hPa81%
21-Jun-2024 12:00Light Rain27°C2 mph, SW86%10000m1012hPa79%
21-Jun-2024 15:00Moderate Rain26°C2 mph, SW51%10000m1010hPa87%
21-Jun-2024 18:00Moderate Rain22°C2 mph, W73%10000m1012hPa97%
21-Jun-2024 21:00Light Rain21°C2 mph, NW93%10000m1014hPa99%
22-Jun-2024 00:00Light Rain21°C2 mph, W97%1217m1014hPa99%
22-Jun-2024 03:00Overcast Clouds21°C2 mph, W100%10000m1013hPa99%